createdAt,value
2018-11-28T00:01:43.119Z,51.17
2018-11-28T00:04:14.821Z,50.90
2018-11-28T00:06:44.596Z,54.90
2018-11-28T00:09:14.108Z,44.77
2018-11-28T00:11:44.476Z,53.53
2018-11-28T00:14:13.362Z,53.57
2018-11-28T00:16:43.193Z,48.77
2018-11-28T00:19:12.641Z,50.67
2018-11-28T00:21:41.146Z,55.37
2018-11-28T00:24:13.254Z,43.63
2018-11-28T00:26:43.393Z,50.33
2018-11-28T00:29:13.038Z,48.03
2018-11-28T00:31:43.313Z,45.83
2018-11-28T00:34:15.458Z,52.87
2018-11-28T00:36:45.623Z,52.37
2018-11-28T00:39:15.810Z,49.77
2018-11-28T00:41:45.691Z,50.80
2018-11-28T00:44:14.440Z,55.53
2018-11-28T00:46:42.976Z,45.40
2018-11-28T00:49:12.914Z,57.07
2018-11-28T00:51:43.358Z,46.43
2018-11-28T00:54:13.322Z,55.33
2018-11-28T00:56:43.578Z,58.43
2018-11-28T00:59:13.955Z,52.17
2018-11-28T01:01:45.582Z,50.87
2018-11-28T01:04:15.366Z,53.37
2018-11-28T01:06:46.108Z,53.13
2018-11-28T01:09:16.548Z,57.63
2018-11-28T01:11:46.724Z,55.30
2018-11-28T01:14:16.463Z,56.63
2018-11-28T01:16:48.857Z,54.87
2018-11-28T01:19:19.263Z,58.53
2018-11-28T01:21:48.100Z,54.13
2018-11-28T01:24:18.287Z,61.73
2018-11-28T01:26:46.834Z,56.60
2018-11-28T01:29:16.875Z,56.27
2018-11-28T01:31:46.936Z,63.47
2018-11-28T01:34:17.433Z,57.20
2018-11-28T01:36:47.147Z,57.93
2018-11-28T01:39:15.720Z,59.07
2018-11-28T01:41:47.381Z,57.83
2018-11-28T01:44:18.529Z,56.03
2018-11-28T01:46:47.104Z,57.27
2018-11-28T01:49:21.143Z,59.87
2018-11-28T01:51:52.307Z,56.63
2018-11-28T01:54:22.574Z,53.53
2018-11-28T01:56:54.039Z,61.23
2018-11-28T01:59:24.879Z,63.33
2018-11-28T02:01:55.617Z,56.13
2018-11-28T02:04:24.195Z,60.17
2018-11-28T02:06:54.692Z,62.93
2018-11-28T02:09:23.668Z,61.53
2018-11-28T02:11:52.179Z,59.20
2018-11-28T02:14:20.680Z,56.77
2018-11-28T02:16:49.197Z,60.40
2018-11-28T02:19:21.133Z,55.00
2018-11-28T02:21:51.394Z,57.30
2018-11-28T02:24:22.697Z,65.00
2018-11-28T02:26:53.833Z,62.93
2018-11-28T02:29:22.475Z,60.90
2018-11-28T02:31:53.979Z,63.70
2018-11-28T02:34:25.100Z,61.23
2018-11-28T02:36:56.261Z,58.50
2018-11-28T02:39:24.896Z,63.53
2018-11-28T02:41:55.160Z,61.27
2018-11-28T02:44:24.657Z,69.07
2018-11-28T02:46:55.500Z,72.47
2018-11-28T02:49:25.822Z,57.97
2018-11-28T02:51:56.147Z,56.27
2018-11-28T02:54:26.269Z,58.67
2018-11-28T02:56:56.988Z,60.70
2018-11-28T02:59:28.340Z,62.80
2018-11-28T03:01:56.890Z,62.20
2018-11-28T03:04:26.418Z,57.73
2018-11-28T03:06:57.042Z,60.90
2018-11-28T03:09:28.219Z,63.80
2018-11-28T03:11:59.221Z,62.73
2018-11-28T03:14:30.706Z,62.33
2018-11-28T03:17:01.342Z,66.13
2018-11-28T03:19:31.237Z,69.73
2018-11-28T03:22:01.476Z,66.43
2018-11-28T03:24:32.193Z,64.60
2018-11-28T03:27:02.322Z,65.03
2018-11-28T03:29:32.290Z,58.17
2018-11-28T03:32:02.694Z,68.57
2018-11-28T03:34:33.265Z,69.17
2018-11-28T03:37:01.833Z,66.97
2018-11-28T03:39:30.353Z,68.63
2018-11-28T03:42:01.848Z,61.67
2018-11-28T03:44:31.963Z,70.67
2018-11-28T03:47:00.764Z,68.23
2018-11-28T03:49:31.456Z,62.07
2018-11-28T03:52:02.498Z,59.23
2018-11-28T03:54:32.682Z,66.77
2018-11-28T03:57:04.760Z,62.60
2018-11-28T03:59:33.321Z,65.40
2018-11-28T04:02:05.812Z,70.63
2018-11-28T04:04:34.990Z,65.60
2018-11-28T04:07:06.020Z,65.23
2018-11-28T04:09:36.601Z,64.73
2018-11-28T04:12:08.369Z,61.20
2018-11-28T04:14:37.743Z,64.50
2018-11-28T04:17:07.574Z,62.97
2018-11-28T04:19:37.659Z,65.23
2018-11-28T04:22:07.061Z,60.17
2018-11-28T04:24:36.194Z,67.53
2018-11-28T04:27:06.315Z,68.23
2018-11-28T04:29:35.244Z,61.50
2018-11-28T04:32:03.754Z,72.90
2018-11-28T04:34:32.301Z,70.33
2018-11-28T04:37:00.757Z,68.50
2018-11-28T04:39:29.265Z,65.33
2018-11-28T04:41:58.020Z,66.70
2018-11-28T04:44:26.633Z,69.10
2018-11-28T04:46:55.192Z,70.30
2018-11-28T04:49:25.349Z,71.97
2018-11-28T04:51:55.592Z,68.83
2018-11-28T04:54:25.005Z,73.27
2018-11-28T04:56:53.627Z,68.20
2018-11-28T04:59:23.337Z,71.40
2018-11-28T05:01:51.911Z,68.83
2018-11-28T05:04:22.928Z,68.70
2018-11-28T05:07:56.453Z,71.40
2018-11-28T05:10:28.113Z,65.70
2018-11-28T05:12:59.201Z,64.63
2018-11-28T05:15:29.077Z,68.83
2018-11-28T05:17:58.843Z,69.67
2018-11-28T05:20:33.666Z,68.67
2018-11-28T05:23:04.811Z,69.93
2018-11-28T05:25:35.916Z,67.67
2018-11-28T05:28:04.853Z,66.63
2018-11-28T05:30:35.713Z,67.70
2018-11-28T05:33:03.211Z,71.57
2018-11-28T05:35:36.432Z,65.00
2018-11-28T05:38:09.739Z,71.83
2018-11-28T05:40:38.594Z,68.27
2018-11-28T05:43:07.308Z,66.90
2018-11-28T05:45:36.028Z,64.73
2018-11-28T05:48:05.325Z,69.60
2018-11-28T05:50:33.961Z,70.67
2018-11-28T05:53:03.412Z,69.90
2018-11-28T05:55:32.796Z,68.37
2018-11-28T05:58:03.828Z,63.00
2018-11-28T06:00:36.540Z,66.00
2018-11-28T06:03:06.369Z,70.33
2018-11-28T06:05:35.512Z,66.53
2018-11-28T06:08:06.549Z,71.37
2018-11-28T06:10:36.632Z,67.03
2018-11-28T06:13:05.337Z,62.00
2018-11-28T06:15:34.964Z,64.73
2018-11-28T06:18:05.171Z,61.97
2018-11-28T06:20:34.504Z,63.67
2018-11-28T06:23:03.951Z,59.87
2018-11-28T06:25:33.636Z,65.03
2018-11-28T06:28:04.644Z,69.03
2018-11-28T06:30:34.075Z,65.43
2018-11-28T06:33:05.293Z,60.83
2018-11-28T06:35:35.847Z,69.20
2018-11-28T06:38:06.383Z,64.63
2018-11-28T06:40:36.204Z,68.30
2018-11-28T06:43:05.989Z,70.53
2018-11-28T06:45:35.625Z,69.03
2018-11-28T06:48:04.260Z,66.77
2018-11-28T06:50:32.745Z,66.17
2018-11-28T06:53:02.678Z,71.67
2018-11-28T06:55:31.157Z,67.40
2018-11-28T06:57:59.654Z,62.60
2018-11-28T07:00:28.134Z,69.07
2018-11-28T07:02:56.715Z,64.67
2018-11-28T07:05:27.130Z,67.77
2018-11-28T07:07:55.788Z,70.40
2018-11-28T07:10:24.288Z,70.93
2018-11-28T07:12:52.725Z,67.90
2018-11-28T07:15:23.498Z,68.97
2018-11-28T07:17:52.046Z,67.87
2018-11-28T07:20:22.118Z,72.57
2018-11-28T07:22:51.733Z,64.07
2018-11-28T07:25:22.159Z,74.27
2018-11-28T07:27:53.612Z,71.43
2018-11-28T07:30:24.970Z,64.73
2018-11-28T07:32:56.369Z,73.50
2018-11-28T07:35:25.811Z,71.10
2018-11-28T07:37:55.929Z,67.03
2018-11-28T07:40:28.100Z,70.67
2018-11-28T07:43:08.150Z,70.50
2018-11-28T07:45:39.877Z,72.37
2018-11-28T07:48:08.453Z,79.20
2018-11-28T07:50:38.904Z,69.20
2018-11-28T07:53:09.709Z,64.13
2018-11-28T07:55:39.974Z,63.87
2018-11-28T07:58:10.736Z,67.70
2018-11-28T08:00:41.447Z,67.90
2018-11-28T08:03:12.378Z,65.37
2018-11-28T08:05:42.495Z,66.73
2018-11-28T08:08:14.546Z,67.83
2018-11-28T08:10:45.627Z,63.33
2018-11-28T08:13:16.823Z,66.60
2018-11-28T08:15:48.320Z,64.63
2018-11-28T08:18:18.627Z,62.20
2018-11-28T08:20:48.438Z,65.13
2018-11-28T08:23:19.171Z,60.80
2018-11-28T08:25:50.106Z,58.80
2018-11-28T08:28:20.632Z,64.43
2018-11-28T08:31:21.276Z,67.20
2018-11-28T08:33:51.971Z,64.30
2018-11-28T08:36:21.922Z,72.37
2018-11-28T08:38:51.630Z,56.70
2018-11-28T08:41:21.790Z,63.30
2018-11-28T08:43:51.453Z,69.47
2018-11-28T08:46:21.607Z,60.07
2018-11-28T08:48:51.902Z,60.37
2018-11-28T08:51:21.920Z,59.60
2018-11-28T08:53:51.731Z,57.97
2018-11-28T08:56:21.390Z,62.67
2018-11-28T08:58:51.357Z,59.33
2018-11-28T09:01:20.831Z,65.47
2018-11-28T09:03:50.360Z,58.53
2018-11-28T09:06:20.072Z,56.37
2018-11-28T09:08:49.679Z,65.10
2018-11-28T09:11:20.725Z,55.93
2018-11-28T09:13:50.844Z,53.83
2018-11-28T09:16:20.534Z,62.00
2018-11-28T09:18:49.854Z,62.40
2018-11-28T09:21:19.200Z,56.57
2018-11-28T09:23:49.220Z,57.70
2018-11-28T09:26:19.476Z,53.60
2018-11-28T09:28:49.930Z,59.60
2018-11-28T09:31:21.586Z,56.87
2018-11-28T09:33:53.332Z,56.03
2018-11-28T09:36:24.107Z,59.87
2018-11-28T09:38:52.965Z,59.73
2018-11-28T09:41:23.152Z,54.33
2018-11-28T09:43:53.060Z,58.60
2018-11-28T09:46:23.169Z,50.53
2018-11-28T09:48:52.983Z,53.23
2018-11-28T09:51:22.810Z,60.30
2018-11-28T09:53:52.040Z,58.90
2018-11-28T09:56:21.427Z,53.47
2018-11-28T09:58:50.320Z,60.97
2018-11-28T10:01:19.630Z,60.60
2018-11-28T10:03:50.760Z,58.63
2018-11-28T10:06:19.833Z,54.97
2018-11-28T10:08:49.419Z,61.33
2018-11-28T10:11:18.941Z,55.90
2018-11-28T10:13:49.816Z,57.07
2018-11-28T10:16:18.957Z,53.63
2018-11-28T10:18:47.876Z,54.77
2018-11-28T10:21:16.636Z,60.97
2018-11-28T10:23:45.741Z,59.63
2018-11-28T10:26:14.415Z,57.60
2018-11-28T10:28:43.624Z,57.27
2018-11-28T10:31:12.999Z,54.33
2018-11-28T10:33:42.170Z,56.93
2018-11-28T10:36:12.513Z,56.23
2018-11-28T10:38:41.963Z,55.43
2018-11-28T10:41:11.016Z,55.60
2018-11-28T10:43:40.281Z,53.67
2018-11-28T10:46:09.673Z,53.00
2018-11-28T10:48:39.191Z,50.73
2018-11-28T10:51:15.042Z,52.37
2018-11-28T10:53:44.676Z,50.63
2018-11-28T10:56:13.459Z,55.07
2018-11-28T10:58:42.746Z,57.87
2018-11-28T11:01:28.676Z,53.90
2018-11-28T11:04:03.976Z,51.97
2018-11-28T11:06:37.958Z,56.47
2018-11-28T11:09:14.700Z,57.37
2018-11-28T11:11:48.664Z,48.87
2018-11-28T11:14:49.001Z,53.97
2018-11-28T11:17:18.254Z,49.50
2018-11-28T11:19:46.719Z,53.67
2018-11-28T11:22:15.264Z,46.70
2018-11-28T11:24:43.714Z,43.90
2018-11-28T11:27:12.201Z,50.13
2018-11-28T11:29:40.983Z,49.43
2018-11-28T11:32:09.208Z,47.10
2018-11-28T11:34:37.592Z,43.80
2018-11-28T11:37:06.473Z,46.40
2018-11-28T11:39:34.991Z,48.20
2018-11-28T11:42:03.498Z,47.77
2018-11-28T11:44:31.917Z,42.87
2018-11-28T11:47:00.303Z,43.23
2018-11-28T11:49:28.801Z,41.90
2018-11-28T11:51:57.254Z,41.93
2018-11-28T11:54:25.686Z,44.90
2018-11-28T11:56:54.193Z,43.47
2018-11-28T11:59:22.650Z,43.47
2018-11-28T12:01:54.719Z,43.37
2018-11-28T12:04:20.336Z,42.00
2018-11-28T12:06:48.817Z,46.70
2018-11-28T12:09:17.207Z,43.67
2018-11-28T12:11:45.670Z,44.60
2018-11-28T12:14:14.196Z,46.10
2018-11-28T12:16:42.656Z,49.43
2018-11-28T12:19:11.329Z,52.07
2018-11-28T12:21:39.809Z,47.90
2018-11-28T12:24:08.300Z,50.47
2018-11-28T12:26:36.853Z,49.17
2018-11-28T12:29:05.972Z,56.30
2018-11-28T12:31:34.453Z,49.67
2018-11-28T12:34:02.920Z,47.37
2018-11-28T12:36:31.456Z,51.50
2018-11-28T12:39:00.092Z,55.33
2018-11-28T12:41:28.601Z,52.73
2018-11-28T12:43:57.091Z,57.97
2018-11-28T12:46:25.546Z,52.10
2018-11-28T12:48:54.053Z,48.10
2018-11-28T12:51:22.534Z,50.20
2018-11-28T12:53:51.400Z,47.13
2018-11-28T12:56:19.805Z,54.43
2018-11-28T12:58:48.320Z,51.93
2018-11-28T13:01:16.729Z,50.67
2018-11-28T13:03:45.265Z,54.30
2018-11-28T13:06:13.774Z,53.03
2018-11-28T13:08:42.151Z,52.20
2018-11-28T13:11:10.688Z,55.53
2018-11-28T13:13:39.085Z,58.20
2018-11-28T13:16:07.510Z,59.40
2018-11-28T13:18:35.988Z,54.03
2018-11-28T13:21:04.473Z,49.67
2018-11-28T13:23:32.928Z,56.43
2018-11-28T13:26:01.480Z,55.87
2018-11-28T13:28:29.855Z,55.43
2018-11-28T13:30:58.304Z,51.83
2018-11-28T13:33:26.719Z,51.17
2018-11-28T13:35:55.390Z,57.10
2018-11-28T13:38:23.873Z,54.57
2018-11-28T13:40:52.532Z,53.27
2018-11-28T13:43:20.967Z,54.77
2018-11-28T13:45:49.918Z,51.33
2018-11-28T13:48:18.341Z,53.77
2018-11-28T13:50:46.981Z,52.50
2018-11-28T13:53:17.670Z,49.27
2018-11-28T13:58:29.923Z,46.60
2018-11-28T14:00:58.454Z,51.77
2018-11-28T14:03:26.891Z,52.70
2018-11-28T14:05:55.405Z,49.63
2018-11-28T14:08:24.375Z,47.57
2018-11-28T14:10:54.229Z,46.83
2018-11-28T14:13:23.668Z,52.93
2018-11-28T14:15:53.713Z,48.47
2018-11-28T14:18:22.439Z,47.53
2018-11-28T14:20:50.926Z,45.13
2018-11-28T14:23:19.424Z,46.33
2018-11-28T14:25:47.962Z,47.43
2018-11-28T14:28:16.420Z,43.60
2018-11-28T14:30:45.429Z,48.40
2018-11-28T14:33:13.830Z,47.70
2018-11-28T14:35:42.414Z,44.87
2018-11-28T14:38:10.879Z,51.23
2018-11-28T14:40:39.302Z,48.23
2018-11-28T14:43:08.168Z,42.27
2018-11-28T14:45:37.087Z,44.33
2018-11-28T14:48:05.497Z,48.47
2018-11-28T14:50:34.064Z,52.87
2018-11-28T14:53:03.370Z,49.27
2018-11-28T14:55:36.157Z,44.33
2018-11-28T14:58:04.770Z,46.23
2018-11-28T15:00:33.537Z,53.37
2018-11-28T15:03:04.819Z,46.50
2018-11-28T15:05:44.475Z,45.37
2018-11-28T15:08:16.070Z,44.10
2018-11-28T15:11:15.585Z,42.10
2018-11-28T15:13:44.553Z,45.67
2018-11-28T15:16:13.034Z,48.30
2018-11-28T15:18:41.462Z,46.20
2018-11-28T15:21:11.096Z,45.90
2018-11-28T15:23:40.061Z,45.40
2018-11-28T15:26:08.479Z,42.00
2018-11-28T15:28:36.859Z,48.60
2018-11-28T15:31:05.518Z,46.80
2018-11-28T15:33:34.005Z,47.00
2018-11-28T15:36:02.387Z,43.63
2018-11-28T15:38:30.790Z,45.70
2018-11-28T15:40:59.214Z,40.43
2018-11-28T15:43:27.568Z,41.60
2018-11-28T15:45:56.516Z,48.70
2018-11-28T15:48:25.021Z,48.67
2018-11-28T15:50:53.478Z,47.80
2018-11-28T15:53:22.325Z,42.07
2018-11-28T15:55:50.873Z,43.70
2018-11-28T15:58:19.517Z,49.53
2018-11-28T16:00:49.405Z,42.53
2018-11-28T16:03:17.923Z,42.17
2018-11-28T16:05:50.681Z,46.70
2018-11-28T16:08:20.833Z,44.50
2018-11-28T16:10:49.268Z,43.53
2018-11-28T16:13:21.559Z,41.83
2018-11-28T16:15:54.317Z,45.50
2018-11-28T16:18:22.881Z,41.53
2018-11-28T16:20:51.714Z,44.47
2018-11-28T16:23:20.528Z,48.03
2018-11-28T16:25:49.044Z,46.37
2018-11-28T16:28:18.176Z,43.40
2018-11-28T16:30:47.022Z,48.13
2018-11-28T16:33:15.549Z,44.23
2018-11-28T16:35:45.029Z,45.70
2018-11-28T16:38:13.500Z,46.33
2018-11-28T16:40:41.908Z,47.70
2018-11-28T16:43:11.088Z,40.43
2018-11-28T16:45:39.540Z,40.13
2018-11-28T16:48:07.957Z,38.53
2018-11-28T16:50:36.448Z,49.53
2018-11-28T16:53:06.286Z,50.60
2018-11-28T16:55:34.741Z,43.17
2018-11-28T16:58:03.239Z,43.40
2018-11-28T17:00:32.600Z,43.30
2018-11-28T17:03:01.065Z,38.37
2018-11-28T17:05:29.650Z,45.10
2018-11-28T17:07:58.124Z,44.20
2018-11-28T17:10:28.782Z,44.93
2018-11-28T17:12:58.116Z,45.00
2018-11-28T17:15:27.212Z,43.13
2018-11-28T17:17:55.926Z,46.37
2018-11-28T17:20:25.693Z,38.47
2018-11-28T17:22:56.782Z,49.00
2018-11-28T17:25:30.675Z,48.73
2018-11-28T17:27:59.826Z,38.60
2018-11-28T17:30:29.871Z,46.30
2018-11-28T17:32:58.439Z,40.63
2018-11-28T17:35:27.245Z,42.03
2018-11-28T17:37:55.701Z,41.70
2018-11-28T17:40:25.471Z,41.67
2018-11-28T17:42:55.242Z,40.83
2018-11-28T17:45:23.916Z,42.00
2018-11-28T17:47:52.993Z,42.10
2018-11-28T17:50:23.370Z,44.03
2018-11-28T17:53:09.757Z,45.10
2018-11-28T17:55:43.416Z,40.57
2018-11-28T17:58:11.385Z,47.23
2018-11-28T18:00:40.080Z,42.93
2018-11-28T18:03:08.580Z,40.43
2018-11-28T18:05:37.045Z,41.00
2018-11-28T18:08:06.561Z,40.83
2018-11-28T18:10:35.296Z,41.80
2018-11-28T18:13:08.651Z,41.60
2018-11-28T18:15:37.224Z,37.13
2018-11-28T18:18:08.266Z,42.07
2018-11-28T18:20:37.263Z,46.13
2018-11-28T18:23:07.891Z,40.83
2018-11-28T18:25:36.733Z,40.17
2018-11-28T18:28:06.162Z,44.83
2018-11-28T18:30:34.839Z,41.13
2018-11-28T18:33:04.574Z,42.17
2018-11-28T18:35:33.483Z,40.57
2018-11-28T18:38:02.798Z,43.93
2018-11-28T18:40:32.906Z,41.50
2018-11-28T18:43:01.453Z,42.20
2018-11-28T18:45:31.796Z,47.77
2018-11-28T18:48:03.157Z,41.47
2018-11-28T18:50:33.190Z,41.73
2018-11-28T18:53:02.964Z,37.93
2018-11-28T18:55:32.217Z,37.37
2018-11-28T18:58:04.629Z,42.73
2018-11-28T19:00:34.430Z,36.70
2018-11-28T19:03:03.190Z,39.93
2018-11-28T19:05:31.571Z,41.63
2018-11-28T19:08:00.143Z,39.37
2018-11-28T19:10:28.621Z,39.57
2018-11-28T19:12:58.329Z,41.13
2018-11-28T19:15:29.365Z,40.90
2018-11-28T19:17:58.513Z,51.07
2018-11-28T19:20:27.050Z,40.43
2018-11-28T19:22:57.735Z,42.70
2018-11-28T19:25:27.892Z,41.57
2018-11-28T19:27:56.658Z,40.73
2018-11-28T19:30:41.174Z,47.10
2018-11-28T19:33:11.656Z,39.43
2018-11-28T19:35:40.185Z,43.63
2018-11-28T19:38:10.167Z,40.90
2018-11-28T19:40:56.520Z,43.10
2018-11-28T19:43:24.933Z,54.70
2018-11-28T19:45:53.312Z,40.90
2018-11-28T19:48:21.741Z,36.70
2018-11-28T19:50:50.218Z,43.57
2018-11-28T19:53:18.819Z,40.17
2018-11-28T19:55:47.510Z,44.50
2018-11-28T19:58:16.519Z,42.33
2018-11-28T20:00:46.408Z,42.00
2018-11-28T20:03:14.961Z,38.60
2018-11-28T20:05:44.271Z,39.23
2018-11-28T20:08:13.074Z,44.50
2018-11-28T20:10:41.764Z,41.33
2018-11-28T20:13:11.501Z,39.57
2018-11-28T20:15:42.252Z,40.43
2018-11-28T20:18:10.927Z,40.53
2018-11-28T20:20:39.362Z,42.77
2018-11-28T20:23:08.287Z,42.20
2018-11-28T20:25:37.466Z,43.27
2018-11-28T20:28:07.981Z,42.90
2018-11-28T20:30:40.169Z,43.90
2018-11-28T20:33:09.035Z,42.17
2018-11-28T20:35:38.096Z,46.17
2018-11-28T20:38:07.825Z,44.17
2018-11-28T20:40:36.593Z,43.53
2018-11-28T20:43:05.410Z,45.67
2018-11-28T20:45:33.964Z,42.63
2018-11-28T20:48:02.676Z,42.63
2018-11-28T20:50:32.812Z,44.63
2018-11-28T20:53:07.601Z,41.13
2018-11-28T20:55:37.343Z,45.97
2018-11-28T20:58:06.189Z,43.87
2018-11-28T21:00:34.671Z,42.90
2018-11-28T21:03:03.221Z,39.50
2018-11-28T21:05:32.399Z,45.00
2018-11-28T21:08:01.128Z,41.43
2018-11-28T21:10:35.700Z,41.30
2018-11-28T21:13:08.989Z,41.63
2018-11-28T21:15:37.561Z,43.00
2018-11-28T21:18:06.978Z,40.23
2018-11-28T21:20:35.567Z,40.37
2018-11-28T21:23:08.565Z,42.13
2018-11-28T21:25:37.429Z,41.60
2018-11-28T21:28:06.045Z,45.60
2018-11-28T21:30:34.533Z,40.30
2018-11-28T21:33:03.100Z,43.17
2018-11-28T21:35:36.413Z,42.47
2018-11-28T21:38:05.082Z,36.40
2018-11-28T21:40:33.577Z,40.20
2018-11-28T21:43:02.569Z,41.57
2018-11-28T21:45:31.057Z,43.30
2018-11-28T21:47:59.521Z,41.63
2018-11-28T21:50:28.059Z,38.70
2018-11-28T21:52:56.573Z,54.07
2018-11-28T21:55:25.436Z,43.13
2018-11-28T21:57:54.533Z,42.37
2018-11-28T22:00:24.921Z,43.63
2018-11-28T22:02:54.056Z,39.97
2018-11-28T22:05:22.937Z,40.90
2018-11-28T22:07:51.850Z,41.13
2018-11-28T22:10:21.383Z,43.00
2018-11-28T22:12:50.135Z,41.10
2018-11-28T22:15:19.332Z,41.03
2018-11-28T22:17:49.913Z,39.13
2018-11-28T22:20:18.438Z,41.17
2018-11-28T22:22:46.960Z,41.53
2018-11-28T22:25:22.944Z,41.80
2018-11-28T22:27:52.243Z,38.43
2018-11-28T22:30:22.635Z,41.53
2018-11-28T22:32:51.796Z,38.40
2018-11-28T22:35:20.358Z,42.97
2018-11-28T22:37:48.917Z,44.40
2018-11-28T22:40:20.744Z,46.37
2018-11-28T22:42:49.304Z,44.57
2018-11-28T22:45:23.062Z,43.90
2018-11-28T22:47:51.572Z,41.30
2018-11-28T22:50:20.075Z,42.23
2018-11-28T22:52:49.497Z,43.03
2018-11-28T22:55:18.363Z,45.03
2018-11-28T22:57:47.851Z,44.10
2018-11-28T23:00:23.132Z,41.17
2018-11-28T23:02:55.400Z,40.50
2018-11-28T23:05:28.104Z,41.47
2018-11-28T23:07:58.086Z,44.13
2018-11-28T23:10:29.824Z,42.67
2018-11-28T23:12:58.543Z,39.27
2018-11-28T23:15:26.994Z,44.30
2018-11-28T23:17:55.621Z,45.83
2018-11-28T23:20:23.937Z,39.07
2018-11-28T23:22:52.833Z,42.33
2018-11-28T23:25:21.401Z,42.10
2018-11-28T23:27:49.815Z,40.00
2018-11-28T23:30:19.188Z,38.90
2018-11-28T23:32:48.360Z,41.70
2018-11-28T23:35:17.057Z,41.37
2018-11-28T23:37:46.636Z,41.67
2018-11-28T23:40:23.331Z,39.30
2018-11-28T23:42:52.433Z,45.30
2018-11-28T23:45:20.976Z,39.53
2018-11-28T23:47:49.655Z,41.43
2018-11-28T23:50:24.943Z,38.93
2018-11-28T23:52:55.047Z,40.37
2018-11-28T23:55:24.661Z,40.73
2018-11-28T23:57:53.270Z,41.83
